Aviation Digital Data Service (ADDS)

Output produced by METARs form (1437 UTC 24 August 2019)
found at http://www.aviationweather.gov/metar/data/
 
METAR text: FACT 241400Z 32015KT CAVOK 22/03 Q1017 NOSIG
Conditions at: FACT (CAPETOWN/DF MALA, ZA) observed 1400 UTC 24 August 2019
Temperature: 22.0°C (72°F)
Dewpoint: 3.0°C (37°F) [RH = 29%]
Pressure (altimeter): 30.03 inches Hg (1017.0 mb)
Winds: from the NW (320 degrees) at 17 MPH (15 knots; 7.7 m/s)
Visibility: 6 or more miles (10+ km)
Ceiling: ceiling and visibility are OK
Clouds: unknown
Weather: no significant weather observed at this time

METAR text: FACT 241300Z 33013KT CAVOK 22/06 Q1018 NOSIG
Conditions at: FACT (CAPETOWN/DF MALA, ZA) observed 1300 UTC 24 August 2019
Temperature: 22.0°C (72°F)
Dewpoint: 6.0°C (43°F) [RH = 35%]
Pressure (altimeter): 30.06 inches Hg (1018.0 mb)
Winds: from the NNW (330 degrees) at 15 MPH (13 knots; 6.7 m/s)
Visibility: 6 or more miles (10+ km)
Ceiling: ceiling and visibility are OK
Clouds: unknown
Weather: no significant weather observed at this time

METAR text: FACT 241200Z 33010KT CAVOK 22/08 Q1018 NOSIG
Conditions at: FACT (CAPETOWN/DF MALA, ZA) observed 1200 UTC 24 August 2019
Temperature: 22.0°C (72°F)
Dewpoint: 8.0°C (46°F) [RH = 41%]
Pressure (altimeter): 30.06 inches Hg (1018.0 mb)
Winds: from the NNW (330 degrees) at 12 MPH (10 knots; 5.1 m/s)
Visibility: 6 or more miles (10+ km)
Ceiling: ceiling and visibility are OK
Clouds: unknown
Weather: no significant weather observed at this time

METAR text: FACT 241100Z 33009KT 310V010 CAVOK 23/06 Q1020 NOSIG
Conditions at: FACT (CAPETOWN/DF MALA, ZA) observed 1100 UTC 24 August 2019
Temperature: 23.0°C (73°F)
Dewpoint: 6.0°C (43°F) [RH = 33%]
Pressure (altimeter): 30.12 inches Hg (1020.0 mb)
Winds: from the NNW (330 degrees) at 10 MPH (9 knots; 4.6 m/s)
Visibility: 6 or more miles (10+ km)
Ceiling: ceiling and visibility are OK
Clouds: unknown
Weather: no significant weather observed at this time

METAR text: FACT 241000Z 32009KT CAVOK 22/07 Q1020 NOSIG
Conditions at: FACT (CAPETOWN/DF MALA, ZA) observed 1000 UTC 24 August 2019
Temperature: 22.0°C (72°F)
Dewpoint: 7.0°C (45°F) [RH = 38%]
Pressure (altimeter): 30.12 inches Hg (1020.0 mb)
Winds: from the NW (320 degrees) at 10 MPH (9 knots; 4.6 m/s)
Visibility: 6 or more miles (10+ km)
Ceiling: ceiling and visibility are OK
Clouds: unknown
Weather: no significant weather observed at this time

METAR text: FACT 240900Z 33007KT 290V010 CAVOK 20/11 Q1021 NOSIG
Conditions at: FACT (CAPETOWN/DF MALA, ZA) observed 0900 UTC 24 August 2019
Temperature: 20.0°C (68°F)
Dewpoint: 11.0°C (52°F) [RH = 56%]
Pressure (altimeter): 30.15 inches Hg (1021.0 mb)
Winds: from the NNW (330 degrees) at 8 MPH (7 knots; 3.6 m/s)
Visibility: 6 or more miles (10+ km)
Ceiling: ceiling and visibility are OK
Clouds: unknown
Weather: no significant weather observed at this time

METAR text: FACT 240800Z 34009KT CAVOK 20/06 Q1021 NOSIG
Conditions at: FACT (CAPETOWN/DF MALA, ZA) observed 0800 UTC 24 August 2019
Temperature: 20.0°C (68°F)
Dewpoint: 6.0°C (43°F) [RH = 40%]
Pressure (altimeter): 30.15 inches Hg (1021.0 mb)
Winds: from the NNW (340 degrees) at 10 MPH (9 knots; 4.6 m/s)
Visibility: 6 or more miles (10+ km)
Ceiling: ceiling and visibility are OK
Clouds: unknown
Weather: no significant weather observed at this time

METAR text: FACT 240700Z 02005KT 350V050 CAVOK 18/05 Q1021 NOSIG
Conditions at: FACT (CAPETOWN/DF MALA, ZA) observed 0700 UTC 24 August 2019
Temperature: 18.0°C (64°F)
Dewpoint: 5.0°C (41°F) [RH = 42%]
Pressure (altimeter): 30.15 inches Hg (1021.0 mb)
Winds: from the NNE (20 degrees) at 6 MPH (5 knots; 2.6 m/s)
Visibility: 6 or more miles (10+ km)
Ceiling: ceiling and visibility are OK
Clouds: unknown
Weather: no significant weather observed at this time

METAR text: FACT 240644Z 01006KT CAVOK 17/06 Q1021 NOSIG
Conditions at: FACT (CAPETOWN/DF MALA, ZA) observed 0644 UTC 24 August 2019
Temperature: 17.0°C (63°F)
Dewpoint: 6.0°C (43°F) [RH = 48%]
Pressure (altimeter): 30.15 inches Hg (1021.0 mb)
Winds: from the N (10 degrees) at 7 MPH (6 knots; 3.1 m/s)
Visibility: 6 or more miles (10+ km)
Ceiling: ceiling and visibility are OK
Clouds: unknown
Weather: no significant weather observed at this time

METAR text: FACT 240624Z 02009KT CAVOK 15/08 Q1020 NOSIG
Conditions at: FACT (CAPETOWN/DF MALA, ZA) observed 0624 UTC 24 August 2019
Temperature: 15.0°C (59°F)
Dewpoint: 8.0°C (46°F) [RH = 63%]
Pressure (altimeter): 30.12 inches Hg (1020.0 mb)
Winds: from the NNE (20 degrees) at 10 MPH (9 knots; 4.6 m/s)
Visibility: 6 or more miles (10+ km)
Ceiling: ceiling and visibility are OK
Clouds: unknown
Weather: no significant weather observed at this time

METAR text: FACT 240600Z 01009KT CAVOK 12/06 Q1020 NOSIG
Conditions at: FACT (CAPETOWN/DF MALA, ZA) observed 0600 UTC 24 August 2019
Temperature: 12.0°C (54°F)
Dewpoint: 6.0°C (43°F) [RH = 67%]
Pressure (altimeter): 30.12 inches Hg (1020.0 mb)
Winds: from the N (10 degrees) at 10 MPH (9 knots; 4.6 m/s)
Visibility: 6 or more miles (10+ km)
Ceiling: ceiling and visibility are OK
Clouds: unknown
Weather: no significant weather observed at this time

METAR text: FACT 240555Z 01009KT CAVOK 12/06 Q1020 NOSIG
Conditions at: FACT (CAPETOWN/DF MALA, ZA) observed 0555 UTC 24 August 2019
Temperature: 12.0°C (54°F)
Dewpoint: 6.0°C (43°F) [RH = 67%]
Pressure (altimeter): 30.12 inches Hg (1020.0 mb)
Winds: from the N (10 degrees) at 10 MPH (9 knots; 4.6 m/s)
Visibility: 6 or more miles (10+ km)
Ceiling: ceiling and visibility are OK
Clouds: unknown
Weather: no significant weather observed at this time

METAR text: FACT 240500Z 36005KT 290V050 CAVOK 09/03 Q1020 NOSIG
Conditions at: FACT (CAPETOWN/DF MALA, ZA) observed 0500 UTC 24 August 2019
Temperature: 9.0°C (48°F)
Dewpoint: 3.0°C (37°F) [RH = 66%]
Pressure (altimeter): 30.12 inches Hg (1020.0 mb)
Winds: from the N (360 degrees) at 6 MPH (5 knots; 2.6 m/s)
Visibility: 6 or more miles (10+ km)
Ceiling: ceiling and visibility are OK
Clouds: unknown
Weather: no significant weather observed at this time

METAR text: FACT 240424Z 06004KT CAVOK 10/04 Q1020 NOSIG
Conditions at: FACT (CAPETOWN/DF MALA, ZA) observed 0424 UTC 24 August 2019
Temperature: 10.0°C (50°F)
Dewpoint: 4.0°C (39°F) [RH = 66%]
Pressure (altimeter): 30.12 inches Hg (1020.0 mb)
Winds: from the ENE (60 degrees) at 5 MPH (4 knots; 2.1 m/s)
Visibility: 6 or more miles (10+ km)
Ceiling: ceiling and visibility are OK
Clouds: unknown
Weather: no significant weather observed at this time

METAR text: FACT 240400Z 01004KT CAVOK 08/04 Q1020 NOSIG
Conditions at: FACT (CAPETOWN/DF MALA, ZA) observed 0400 UTC 24 August 2019
Temperature: 8.0°C (46°F)
Dewpoint: 4.0°C (39°F) [RH = 76%]
Pressure (altimeter): 30.12 inches Hg (1020.0 mb)
Winds: from the N (10 degrees) at 5 MPH (4 knots; 2.1 m/s)
Visibility: 6 or more miles (10+ km)
Ceiling: ceiling and visibility are OK
Clouds: unknown
Weather: no significant weather observed at this time

METAR text: FACT 240300Z 02004KT CAVOK 09/05 Q1020 NOSIG
Conditions at: FACT (CAPETOWN/DF MALA, ZA) observed 0300 UTC 24 August 2019
Temperature: 9.0°C (48°F)
Dewpoint: 5.0°C (41°F) [RH = 76%]
Pressure (altimeter): 30.12 inches Hg (1020.0 mb)
Winds: from the NNE (20 degrees) at 5 MPH (4 knots; 2.1 m/s)
Visibility: 6 or more miles (10+ km)
Ceiling: ceiling and visibility are OK
Clouds: unknown
Weather: no significant weather observed at this time

METAR text: FACT 240200Z 01005KT CAVOK 09/04 Q1020 NOSIG
Conditions at: FACT (CAPETOWN/DF MALA, ZA) observed 0200 UTC 24 August 2019
Temperature: 9.0°C (48°F)
Dewpoint: 4.0°C (39°F) [RH = 71%]
Pressure (altimeter): 30.12 inches Hg (1020.0 mb)
Winds: from the N (10 degrees) at 6 MPH (5 knots; 2.6 m/s)
Visibility: 6 or more miles (10+ km)
Ceiling: ceiling and visibility are OK
Clouds: unknown
Weather: no significant weather observed at this time

METAR text: FACT 240100Z 03006KT CAVOK 08/04 Q1021 NOSIG
Conditions at: FACT (CAPETOWN/DF MALA, ZA) observed 0100 UTC 24 August 2019
Temperature: 8.0°C (46°F)
Dewpoint: 4.0°C (39°F) [RH = 76%]
Pressure (altimeter): 30.15 inches Hg (1021.0 mb)
Winds: from the NNE (30 degrees) at 7 MPH (6 knots; 3.1 m/s)
Visibility: 6 or more miles (10+ km)
Ceiling: ceiling and visibility are OK
Clouds: unknown
Weather: no significant weather observed at this time

METAR text: FACT 240000Z 03004KT CAVOK 09/05 Q1021 NOSIG
Conditions at: FACT (CAPETOWN/DF MALA, ZA) observed 0000 UTC 24 August 2019
Temperature: 9.0°C (48°F)
Dewpoint: 5.0°C (41°F) [RH = 76%]
Pressure (altimeter): 30.15 inches Hg (1021.0 mb)
Winds: from the NNE (30 degrees) at 5 MPH (4 knots; 2.1 m/s)
Visibility: 6 or more miles (10+ km)
Ceiling: ceiling and visibility are OK
Clouds: unknown
Weather: no significant weather observed at this time

METAR text: FACT 232300Z VRB02KT CAVOK 11/07 Q1021 NOSIG
Conditions at: FACT (CAPETOWN/DF MALA, ZA) observed 2300 UTC 23 August 2019
Temperature: 11.0°C (52°F)
Dewpoint: 7.0°C (45°F) [RH = 76%]
Pressure (altimeter): 30.15 inches Hg (1021.0 mb)
Winds: variable direction winds at 2 MPH (2 knots; 1.0 m/s)
Visibility: 6 or more miles (10+ km)
Ceiling: ceiling and visibility are OK
Clouds: unknown
Weather: no significant weather observed at this time

METAR text: FACT 232200Z 05004KT 8000 NSC 10/07 Q1021 NOSIG
Conditions at: FACT (CAPETOWN/DF MALA, ZA) observed 2200 UTC 23 August 2019
Temperature: 10.0°C (50°F)
Dewpoint: 7.0°C (45°F) [RH = 82%]
Pressure (altimeter): 30.15 inches Hg (1021.0 mb)
Winds: from the NE (50 degrees) at 5 MPH (4 knots; 2.1 m/s)
Visibility: 5 miles ( 8 km)
Ceiling: at least 12,000 feet AGL
Clouds: sky clear below 12,000 feet AGL
Weather: no significant weather observed at this time

METAR text: FACT 232158Z 05004KT 8000 NSC 10/07 Q1021 NOSIG
Conditions at: FACT (CAPETOWN/DF MALA, ZA) observed 2158 UTC 23 August 2019
Temperature: 10.0°C (50°F)
Dewpoint: 7.0°C (45°F) [RH = 82%]
Pressure (altimeter): 30.15 inches Hg (1021.0 mb)
Winds: from the NE (50 degrees) at 5 MPH (4 knots; 2.1 m/s)
Visibility: 5 miles ( 8 km)
Ceiling: at least 12,000 feet AGL
Clouds: sky clear below 12,000 feet AGL
Weather: no significant weather observed at this time

METAR text: FACT 232100Z 13002KT 4500 MIFG NSC 11/10 Q1022 TEMPO 2000
Conditions at: FACT (CAPETOWN/DF MALA, ZA) observed 2100 UTC 23 August 2019
Temperature: 11.0°C (52°F)
Dewpoint: 10.0°C (50°F) [RH = 94%]
Pressure (altimeter): 30.18 inches Hg (1022.0 mb)
Winds: from the SE (130 degrees) at 2 MPH (2 knots; 1.0 m/s)
Visibility: 2.80 miles (4.51 km)
Ceiling: at least 12,000 feet AGL
Clouds: sky clear below 12,000 feet AGL
Weather: MIFG  (shallow fog)

METAR text: FACT 232058Z 13002KT 4500 MIFG NSC 11/10 Q1022 TEMPO 2000
Conditions at: FACT (CAPETOWN/DF MALA, ZA) observed 2058 UTC 23 August 2019
Temperature: 11.0°C (52°F)
Dewpoint: 10.0°C (50°F) [RH = 94%]
Pressure (altimeter): 30.18 inches Hg (1022.0 mb)
Winds: from the SE (130 degrees) at 2 MPH (2 knots; 1.0 m/s)
Visibility: 2.80 miles (4.51 km)
Ceiling: at least 12,000 feet AGL
Clouds: sky clear below 12,000 feet AGL
Weather: MIFG  (shallow fog)

METAR text: FACT 232000Z 08002KT 9000 NSC 12/10 Q1022 NOSIG
Conditions at: FACT (CAPETOWN/DF MALA, ZA) observed 2000 UTC 23 August 2019
Temperature: 12.0°C (54°F)
Dewpoint: 10.0°C (50°F) [RH = 88%]
Pressure (altimeter): 30.18 inches Hg (1022.0 mb)
Winds: from the E (80 degrees) at 2 MPH (2 knots; 1.0 m/s)
Visibility: 6 miles ( 9 km)
Ceiling: at least 12,000 feet AGL
Clouds: sky clear below 12,000 feet AGL
Weather: no significant weather observed at this time

METAR text: FACT 231900Z 07002KT 8000 NSC 14/11 Q1022 NOSIG
Conditions at: FACT (CAPETOWN/DF MALA, ZA) observed 1900 UTC 23 August 2019
Temperature: 14.0°C (57°F)
Dewpoint: 11.0°C (52°F) [RH = 82%]
Pressure (altimeter): 30.18 inches Hg (1022.0 mb)
Winds: from the ENE (70 degrees) at 2 MPH (2 knots; 1.0 m/s)
Visibility: 5 miles ( 8 km)
Ceiling: at least 12,000 feet AGL
Clouds: sky clear below 12,000 feet AGL
Weather: no significant weather observed at this time

METAR text: FACT 231800Z 13003KT CAVOK 14/11 Q1022 NOSIG
Conditions at: FACT (CAPETOWN/DF MALA, ZA) observed 1800 UTC 23 August 2019
Temperature: 14.0°C (57°F)
Dewpoint: 11.0°C (52°F) [RH = 82%]
Pressure (altimeter): 30.18 inches Hg (1022.0 mb)
Winds: from the SE (130 degrees) at 3 MPH (3 knots; 1.5 m/s)
Visibility: 6 or more miles (10+ km)
Ceiling: ceiling and visibility are OK
Clouds: unknown
Weather: no significant weather observed at this time

METAR text: FACT 231700Z 17005KT CAVOK 15/11 Q1021 NOSIG
Conditions at: FACT (CAPETOWN/DF MALA, ZA) observed 1700 UTC 23 August 2019
Temperature: 15.0°C (59°F)
Dewpoint: 11.0°C (52°F) [RH = 77%]
Pressure (altimeter): 30.15 inches Hg (1021.0 mb)
Winds: from the S (170 degrees) at 6 MPH (5 knots; 2.6 m/s)
Visibility: 6 or more miles (10+ km)
Ceiling: ceiling and visibility are OK
Clouds: unknown
Weather: no significant weather observed at this time

METAR text: FACT 231600Z 15004KT CAVOK 19/11 Q1021 NOSIG
Conditions at: FACT (CAPETOWN/DF MALA, ZA) observed 1600 UTC 23 August 2019
Temperature: 19.0°C (66°F)
Dewpoint: 11.0°C (52°F) [RH = 60%]
Pressure (altimeter): 30.15 inches Hg (1021.0 mb)
Winds: from the SSE (150 degrees) at 5 MPH (4 knots; 2.1 m/s)
Visibility: 6 or more miles (10+ km)
Ceiling: ceiling and visibility are OK
Clouds: unknown
Weather: no significant weather observed at this time

METAR text: FACT 231500Z 18005KT 150V210 CAVOK 23/09 Q1021 NOSIG
Conditions at: FACT (CAPETOWN/DF MALA, ZA) observed 1500 UTC 23 August 2019
Temperature: 23.0°C (73°F)
Dewpoint: 9.0°C (48°F) [RH = 41%]
Pressure (altimeter): 30.15 inches Hg (1021.0 mb)
Winds: from the S (180 degrees) at 6 MPH (5 knots; 2.6 m/s)
Visibility: 6 or more miles (10+ km)
Ceiling: ceiling and visibility are OK
Clouds: unknown
Weather: no significant weather observed at this time

METAR text: FACT 231400Z 18005KT 160V220 CAVOK 24/07 Q1021 NOSIG
Conditions at: FACT (CAPETOWN/DF MALA, ZA) observed 1400 UTC 23 August 2019
Temperature: 24.0°C (75°F)
Dewpoint: 7.0°C (45°F) [RH = 34%]
Pressure (altimeter): 30.15 inches Hg (1021.0 mb)
Winds: from the S (180 degrees) at 6 MPH (5 knots; 2.6 m/s)
Visibility: 6 or more miles (10+ km)
Ceiling: ceiling and visibility are OK
Clouds: unknown
Weather: no significant weather observed at this time

METAR text: FACT 231300Z 19004KT 130V210 CAVOK 24/08 Q1021 NOSIG
Conditions at: FACT (CAPETOWN/DF MALA, ZA) observed 1300 UTC 23 August 2019
Temperature: 24.0°C (75°F)
Dewpoint: 8.0°C (46°F) [RH = 36%]
Pressure (altimeter): 30.15 inches Hg (1021.0 mb)
Winds: from the S (190 degrees) at 5 MPH (4 knots; 2.1 m/s)
Visibility: 6 or more miles (10+ km)
Ceiling: ceiling and visibility are OK
Clouds: unknown
Weather: no significant weather observed at this time

METAR text: FACT 231200Z 20005KT 160V240 CAVOK 23/09 Q1022 NOSIG
Conditions at: FACT (CAPETOWN/DF MALA, ZA) observed 1200 UTC 23 August 2019
Temperature: 23.0°C (73°F)
Dewpoint: 9.0°C (48°F) [RH = 41%]
Pressure (altimeter): 30.18 inches Hg (1022.0 mb)
Winds: from the SSW (200 degrees) at 6 MPH (5 knots; 2.6 m/s)
Visibility: 6 or more miles (10+ km)
Ceiling: ceiling and visibility are OK
Clouds: unknown
Weather: no significant weather observed at this time

METAR text: FACT 231100Z 18006KT 140V210 CAVOK 21/11 Q1023 NOSIG
Conditions at: FACT (CAPETOWN/DF MALA, ZA) observed 1100 UTC 23 August 2019
Temperature: 21.0°C (70°F)
Dewpoint: 11.0°C (52°F) [RH = 53%]
Pressure (altimeter): 30.21 inches Hg (1023.0 mb)
Winds: from the S (180 degrees) at 7 MPH (6 knots; 3.1 m/s)
Visibility: 6 or more miles (10+ km)
Ceiling: ceiling and visibility are OK
Clouds: unknown
Weather: no significant weather observed at this time

METAR text: FACT 231000Z 20004KT 150V230 CAVOK 19/12 Q1023 NOSIG
Conditions at: FACT (CAPETOWN/DF MALA, ZA) observed 1000 UTC 23 August 2019
Temperature: 19.0°C (66°F)
Dewpoint: 12.0°C (54°F) [RH = 64%]
Pressure (altimeter): 30.21 inches Hg (1023.0 mb)
Winds: from the SSW (200 degrees) at 5 MPH (4 knots; 2.1 m/s)
Visibility: 6 or more miles (10+ km)
Ceiling: ceiling and visibility are OK
Clouds: unknown
Weather: no significant weather observed at this time

METAR text: FACT 230900Z 21007KT 160V230 CAVOK 17/12 Q1024 NOSIG
Conditions at: FACT (CAPETOWN/DF MALA, ZA) observed 0900 UTC 23 August 2019
Temperature: 17.0°C (63°F)
Dewpoint: 12.0°C (54°F) [RH = 72%]
Pressure (altimeter): 30.24 inches Hg (1024.0 mb)
Winds: from the SSW (210 degrees) at 8 MPH (7 knots; 3.6 m/s)
Visibility: 6 or more miles (10+ km)
Ceiling: ceiling and visibility are OK
Clouds: unknown
Weather: no significant weather observed at this time

METAR text: FACT 230800Z 21006KT 180V240 CAVOK 15/13 Q1024 NOSIG
Conditions at: FACT (CAPETOWN/DF MALA, ZA) observed 0800 UTC 23 August 2019
Temperature: 15.0°C (59°F)
Dewpoint: 13.0°C (55°F) [RH = 88%]
Pressure (altimeter): 30.24 inches Hg (1024.0 mb)
Winds: from the SSW (210 degrees) at 7 MPH (6 knots; 3.1 m/s)
Visibility: 6 or more miles (10+ km)
Ceiling: ceiling and visibility are OK
Clouds: unknown
Weather: no significant weather observed at this time

METAR text: FACT 230701Z 21006KT 6000 NSC 14/13 Q1024 NOSIG
Conditions at: FACT (CAPETOWN/DF MALA, ZA) observed 0701 UTC 23 August 2019
Temperature: 14.0°C (57°F)
Dewpoint: 13.0°C (55°F) [RH = 94%]
Pressure (altimeter): 30.24 inches Hg (1024.0 mb)
Winds: from the SSW (210 degrees) at 7 MPH (6 knots; 3.1 m/s)
Visibility: 4 miles ( 6 km)
Ceiling: at least 12,000 feet AGL
Clouds: sky clear below 12,000 feet AGL
Weather: no significant weather observed at this time

METAR text: FACT 230700Z 21006KT 6000 NSC 14/13 Q1024 NOSIG
Conditions at: FACT (CAPETOWN/DF MALA, ZA) observed 0700 UTC 23 August 2019
Temperature: 14.0°C (57°F)
Dewpoint: 13.0°C (55°F) [RH = 94%]
Pressure (altimeter): 30.24 inches Hg (1024.0 mb)
Winds: from the SSW (210 degrees) at 7 MPH (6 knots; 3.1 m/s)
Visibility: 4 miles ( 6 km)
Ceiling: at least 12,000 feet AGL
Clouds: sky clear below 12,000 feet AGL
Weather: no significant weather observed at this time

METAR text: FACT 230624Z 21010KT 4000 BR NSC 13/13 Q1024 BECMG 6000
Conditions at: FACT (CAPETOWN/DF MALA, ZA) observed 0624 UTC 23 August 2019
Temperature: 13.0°C (55°F)
Dewpoint: 13.0°C (55°F) [RH = 100%]
Pressure (altimeter): 30.24 inches Hg (1024.0 mb)
Winds: from the SSW (210 degrees) at 12 MPH (10 knots; 5.1 m/s)
Visibility: 2.49 miles (4.01 km)
Ceiling: at least 12,000 feet AGL
Clouds: sky clear below 12,000 feet AGL
Weather: BR  (mist)

METAR text: FACT 230600Z VRB03KT 2500 BCFG NSC 10/10 Q1024 BECMG 6000
Conditions at: FACT (CAPETOWN/DF MALA, ZA) observed 0600 UTC 23 August 2019
Temperature: 10.0°C (50°F)
Dewpoint: 10.0°C (50°F) [RH = 100%]
Pressure (altimeter): 30.24 inches Hg (1024.0 mb)
Winds: variable direction winds at 3 MPH (3 knots; 1.5 m/s)
Visibility: 1.55 miles (2.49 km)
Ceiling: at least 12,000 feet AGL
Clouds: sky clear below 12,000 feet AGL
Weather: BCFG  (patches of fog)

METAR text: FACT 230500Z VRB03KT 0100 R19/0325 FG NSC 10/09 Q1024 NOSIG
Conditions at: FACT (CAPETOWN/DF MALA, ZA) observed 0500 UTC 23 August 2019
Temperature: 10.0°C (50°F)
Dewpoint: 9.0°C (48°F) [RH = 93%]
Pressure (altimeter): 30.24 inches Hg (1024.0 mb)
Winds: variable direction winds at 3 MPH (3 knots; 1.5 m/s)
Visibility: 0.06 miles (0.10 km)
Ceiling: at least 12,000 feet AGL
Clouds: sky clear below 12,000 feet AGL
Weather: FG  (fog)

METAR text: FACT 230455Z VRB03KT 0100 R19/0325 FG NSC 10/09 Q1024 NOSIG
Conditions at: FACT (CAPETOWN/DF MALA, ZA) observed 0455 UTC 23 August 2019
Temperature: 10.0°C (50°F)
Dewpoint: 9.0°C (48°F) [RH = 93%]
Pressure (altimeter): 30.24 inches Hg (1024.0 mb)
Winds: variable direction winds at 3 MPH (3 knots; 1.5 m/s)
Visibility: 0.06 miles (0.10 km)
Ceiling: at least 12,000 feet AGL
Clouds: sky clear below 12,000 feet AGL
Weather: FG  (fog)

METAR text: FACT 230427Z VRB01KT 0100 R19/0500 FG NSC 09/09 Q1023 NOSIG
Conditions at: FACT (CAPETOWN/DF MALA, ZA) observed 0427 UTC 23 August 2019
Temperature: 9.0°C (48°F)
Dewpoint: 9.0°C (48°F) [RH = 100%]
Pressure (altimeter): 30.21 inches Hg (1023.0 mb)
Winds: variable direction winds at 1 MPH (1 knots; 0.5 m/s)
Visibility: 0.06 miles (0.10 km)
Ceiling: at least 12,000 feet AGL
Clouds: sky clear below 12,000 feet AGL
Weather: FG  (fog)

METAR text: FACT 230400Z 10003KT 0100 R19/0275 FG NSC 10/10 Q1023 NOSIG
Conditions at: FACT (CAPETOWN/DF MALA, ZA) observed 0400 UTC 23 August 2019
Temperature: 10.0°C (50°F)
Dewpoint: 10.0°C (50°F) [RH = 100%]
Pressure (altimeter): 30.21 inches Hg (1023.0 mb)
Winds: from the E (100 degrees) at 3 MPH (3 knots; 1.5 m/s)
Visibility: 0.06 miles (0.10 km)
Ceiling: at least 12,000 feet AGL
Clouds: sky clear below 12,000 feet AGL
Weather: FG  (fog)

METAR text: FACT 230330Z 15002KT 0050 R19/0325 FG NSC 10/10 Q1022 NOSIG
Conditions at: FACT (CAPETOWN/DF MALA, ZA) observed 0330 UTC 23 August 2019
Temperature: 10.0°C (50°F)
Dewpoint: 10.0°C (50°F) [RH = 100%]
Pressure (altimeter): 30.18 inches Hg (1022.0 mb)
Winds: from the SSE (150 degrees) at 2 MPH (2 knots; 1.0 m/s)
Visibility: 0.03 miles (0.05 km)
Ceiling: at least 12,000 feet AGL
Clouds: sky clear below 12,000 feet AGL
Weather: FG  (fog)

METAR text: FACT 230300Z VRB03KT 0100 R19/0400 FG NSC 10/09 Q1022 NOSIG
Conditions at: FACT (CAPETOWN/DF MALA, ZA) observed 0300 UTC 23 August 2019
Temperature: 10.0°C (50°F)
Dewpoint: 9.0°C (48°F) [RH = 93%]
Pressure (altimeter): 30.18 inches Hg (1022.0 mb)
Winds: variable direction winds at 3 MPH (3 knots; 1.5 m/s)
Visibility: 0.06 miles (0.10 km)
Ceiling: at least 12,000 feet AGL
Clouds: sky clear below 12,000 feet AGL
Weather: FG  (fog)

METAR text: FACT 230253Z VRB03KT 0100 R19/0400 FG NSC 10/09 Q1022 NOSIG
Conditions at: FACT (CAPETOWN/DF MALA, ZA) observed 0253 UTC 23 August 2019
Temperature: 10.0°C (50°F)
Dewpoint: 9.0°C (48°F) [RH = 93%]
Pressure (altimeter): 30.18 inches Hg (1022.0 mb)
Winds: variable direction winds at 3 MPH (3 knots; 1.5 m/s)
Visibility: 0.06 miles (0.10 km)
Ceiling: at least 12,000 feet AGL
Clouds: sky clear below 12,000 feet AGL
Weather: FG  (fog)

Forecast for: FACT (CAPETOWN/DF MALA, ZA)
Text: TAF FACT 241000Z 2412/2518 33010KT CAVOK TX21/2412Z TN09/2505Z
Forecast period: 1200 to 1700 UTC 24 August 2019
Forecast type: FROM: standard forecast or significant change
Winds: from the NNW (330 degrees) at 12 MPH (10 knots; 5.1 m/s)
Visibility: 6 or more miles 10+ km)
Ceiling: unknown
Clouds: missing
Weather: no significant weather forecast for this period
Text: BECMG 2417/2419 BKN014
Forecast period: 1700 UTC 24 August 2019 to 0300 UTC 25 August 2019
Forecast type: BECOMING: Conditions expected to become as follows by 1900 UTC 24 August 2019
Winds: from the NNW (330 degrees) at 12 MPH (10 knots; 5.1 m/s)
Visibility: 6 or more miles 10+ km)
Ceiling: 1400 feet AGL
Clouds: broken clouds at 1400 feet AGL
Weather: no significant weather forecast for this period
Text: FM250300 35018KT 9999 SCT008 BKN020
Forecast period: 0300 to 1600 UTC 25 August 2019
Forecast type: FROM: standard forecast or significant change
Winds: from the N (350 degrees) at 21 MPH (18 knots; 9.3 m/s)
Visibility: 6 or more miles 10+ km)
Ceiling: 2000 feet AGL
Clouds: scattered clouds at 800 feet AGL
broken clouds at 2000 feet AGL
Weather: no significant weather forecast for this period
Text: TEMPO 2509/2518 4500 -RA BKN008
Forecast period: 0900 to 1800 UTC 25 August 2019
Forecast type: TEMPORARY: The following changes expected for less than half the time period
Visibility: 2.80 miles (4.51 km)
Ceiling: 800 feet AGL
Clouds: broken clouds at 800 feet AGL
Weather: -RA  (light rain)
Text: BECMG 2516/2518 21012KT
Forecast period: 1600 to 1800 UTC 25 August 2019
Forecast type: BECOMING: Conditions expected to become as follows by 1800 UTC 25 August 2019
Winds: from the SSW (210 degrees) at 14 MPH (12 knots; 6.2 m/s)
Visibility: 6 or more miles 10+ km)
Ceiling: 2000 feet AGL
Clouds: scattered clouds at 800 feet AGL
broken clouds at 2000 feet AGL
Weather: no significant weather forecast for this period